sensor_id;sensor_type;location;lat;lon;timestamp;temperature;humidity
6333;DHT22;3199;49.102;8.856;2023-06-14T00:02:17;15.80;71.40
6333;DHT22;3199;49.102;8.856;2023-06-14T00:04:42;15.70;71.60
6333;DHT22;3199;49.102;8.856;2023-06-14T00:07:08;15.70;71.70
6333;DHT22;3199;49.102;8.856;2023-06-14T00:09:34;15.70;72.30
6333;DHT22;3199;49.102;8.856;2023-06-14T00:12:00;15.70;72.30
6333;DHT22;3199;49.102;8.856;2023-06-14T00:14:26;15.70;72.30
6333;DHT22;3199;49.102;8.856;2023-06-14T00:16:51;15.70;72.30
6333;DHT22;3199;49.102;8.856;2023-06-14T00:19:18;15.70;71.60
6333;DHT22;3199;49.102;8.856;2023-06-14T00:21:45;15.70;71.00
6333;DHT22;3199;49.102;8.856;2023-06-14T00:24:11;15.70;70.30
6333;DHT22;3199;49.102;8.856;2023-06-14T00:26:36;15.70;69.80
6333;DHT22;3199;49.102;8.856;2023-06-14T00:29:02;15.70;69.10
6333;DHT22;3199;49.102;8.856;2023-06-14T00:31:27;15.70;68.50
6333;DHT22;3199;49.102;8.856;2023-06-14T00:33:53;15.80;68.10
6333;DHT22;3199;49.102;8.856;2023-06-14T00:36:19;15.80;67.70
6333;DHT22;3199;49.102;8.856;2023-06-14T00:38:44;15.90;67.40
6333;DHT22;3199;49.102;8.856;2023-06-14T00:41:10;16.00;67.20
6333;DHT22;3199;49.102;8.856;2023-06-14T00:43:35;16.00;66.90
6333;DHT22;3199;49.102;8.856;2023-06-14T00:46:01;16.00;66.80
6333;DHT22;3199;49.102;8.856;2023-06-14T00:48:27;16.10;66.70
6333;DHT22;3199;49.102;8.856;2023-06-14T00:50:54;16.10;66.50
6333;DHT22;3199;49.102;8.856;2023-06-14T00:53:20;16.10;66.50
6333;DHT22;3199;49.102;8.856;2023-06-14T00:55:48;16.10;66.50
6333;DHT22;3199;49.102;8.856;2023-06-14T00:58:14;16.10;66.50
6333;DHT22;3199;49.102;8.856;2023-06-14T01:00:40;16.10;67.20
6333;DHT22;3199;49.102;8.856;2023-06-14T01:03:05;16.10;66.50
6333;DHT22;3199;49.102;8.856;2023-06-14T01:05:31;16.10;66.50
6333;DHT22;3199;49.102;8.856;2023-06-14T01:10:50;16.10;66.50
6333;DHT22;3199;49.102;8.856;2023-06-14T01:15:54;16.10;66.50
6333;DHT22;3199;49.102;8.856;2023-06-14T01:18:20;16.10;66.50
6333;DHT22;3199;49.102;8.856;2023-06-14T01:20:47;16.10;66.50
6333;DHT22;3199;49.102;8.856;2023-06-14T01:23:22;16.10;66.50
6333;DHT22;3199;49.102;8.856;2023-06-14T01:25:49;16.10;66.60
6333;DHT22;3199;49.102;8.856;2023-06-14T01:28:18;16.10;66.70
6333;DHT22;3199;49.102;8.856;2023-06-14T01:30:48;16.10;66.70
6333;DHT22;3199;49.102;8.856;2023-06-14T01:33:16;16.10;66.80
6333;DHT22;3199;49.102;8.856;2023-06-14T01:35:44;16.10;66.80
6333;DHT22;3199;49.102;8.856;2023-06-14T01:38:10;16.10;66.80
6333;DHT22;3199;49.102;8.856;2023-06-14T01:40:38;16.10;66.90
6333;DHT22;3199;49.102;8.856;2023-06-14T01:43:05;16.10;66.90
6333;DHT22;3199;49.102;8.856;2023-06-14T01:45:31;16.10;66.90
6333;DHT22;3199;49.102;8.856;2023-06-14T01:47:58;16.00;66.90
6333;DHT22;3199;49.102;8.856;2023-06-14T01:50:23;16.00;67.20
6333;DHT22;3199;49.102;8.856;2023-06-14T01:52:53;16.00;67.20
6333;DHT22;3199;49.102;8.856;2023-06-14T01:55:18;16.00;67.30
6333;DHT22;3199;49.102;8.856;2023-06-14T01:57:44;15.90;67.30
6333;DHT22;3199;49.102;8.856;2023-06-14T02:00:10;15.90;67.40
6333;DHT22;3199;49.102;8.856;2023-06-14T02:02:38;16.00;67.60
6333;DHT22;3199;49.102;8.856;2023-06-14T02:05:04;15.90;67.60
6333;DHT22;3199;49.102;8.856;2023-06-14T02:07:30;16.00;67.70
6333;DHT22;3199;49.102;8.856;2023-06-14T02:09:55;15.90;67.70
6333;DHT22;3199;49.102;8.856;2023-06-14T02:12:21;15.90;67.70
6333;DHT22;3199;49.102;8.856;2023-06-14T02:14:46;15.90;67.90
6333;DHT22;3199;49.102;8.856;2023-06-14T02:17:12;15.90;68.00
6333;DHT22;3199;49.102;8.856;2023-06-14T02:19:37;15.90;68.00
6333;DHT22;3199;49.102;8.856;2023-06-14T02:22:03;15.90;68.10
6333;DHT22;3199;49.102;8.856;2023-06-14T02:24:28;15.80;68.10
6333;DHT22;3199;49.102;8.856;2023-06-14T02:26:54;15.90;68.50
6333;DHT22;3199;49.102;8.856;2023-06-14T02:29:20;15.80;68.40
6333;DHT22;3199;49.102;8.856;2023-06-14T02:31:46;15.80;68.50
6333;DHT22;3199;49.102;8.856;2023-06-14T02:34:13;15.80;68.50
6333;DHT22;3199;49.102;8.856;2023-06-14T02:36:39;15.80;68.70
6333;DHT22;3199;49.102;8.856;2023-06-14T02:39:09;15.70;68.80
6333;DHT22;3199;49.102;8.856;2023-06-14T02:41:35;15.70;68.90
6333;DHT22;3199;49.102;8.856;2023-06-14T02:44:01;15.70;69.20
6333;DHT22;3199;49.102;8.856;2023-06-14T02:46:27;15.70;69.20
6333;DHT22;3199;49.102;8.856;2023-06-14T02:48:52;15.70;69.40
6333;DHT22;3199;49.102;8.856;2023-06-14T02:51:18;15.70;69.40
6333;DHT22;3199;49.102;8.856;2023-06-14T02:53:43;15.70;69.60
6333;DHT22;3199;49.102;8.856;2023-06-14T02:56:09;15.60;69.70
6333;DHT22;3199;49.102;8.856;2023-06-14T02:58:36;15.60;69.90
6333;DHT22;3199;49.102;8.856;2023-06-14T03:01:02;15.60;70.00
6333;DHT22;3199;49.102;8.856;2023-06-14T03:03:28;15.60;70.10
6333;DHT22;3199;49.102;8.856;2023-06-14T03:05:54;15.50;70.10
6333;DHT22;3199;49.102;8.856;2023-06-14T03:08:20;15.50;70.50
6333;DHT22;3199;49.102;8.856;2023-06-14T03:10:46;15.60;70.40
6333;DHT22;3199;49.102;8.856;2023-06-14T03:13:13;15.50;70.40
6333;DHT22;3199;49.102;8.856;2023-06-14T03:15:38;15.50;70.50
6333;DHT22;3199;49.102;8.856;2023-06-14T03:18:09;15.50;70.70
6333;DHT22;3199;49.102;8.856;2023-06-14T03:20:35;15.50;70.80
6333;DHT22;3199;49.102;8.856;2023-06-14T03:23:02;15.50;71.10
6333;DHT22;3199;49.102;8.856;2023-06-14T03:25:29;15.50;71.10
6333;DHT22;3199;49.102;8.856;2023-06-14T03:27:55;15.40;71.50
6333;DHT22;3199;49.102;8.856;2023-06-14T03:30:21;15.50;71.60
6333;DHT22;3199;49.102;8.856;2023-06-14T03:32:46;15.40;71.50
6333;DHT22;3199;49.102;8.856;2023-06-14T03:35:12;15.40;71.70
6333;DHT22;3199;49.102;8.856;2023-06-14T03:37:43;15.40;71.70
6333;DHT22;3199;49.102;8.856;2023-06-14T03:40:09;15.40;71.80
6333;DHT22;3199;49.102;8.856;2023-06-14T03:42:34;15.40;71.90
6333;DHT22;3199;49.102;8.856;2023-06-14T03:45:00;15.40;71.90
6333;DHT22;3199;49.102;8.856;2023-06-14T03:47:25;15.40;71.90
6333;DHT22;3199;49.102;8.856;2023-06-14T03:49:52;15.50;72.10
6333;DHT22;3199;49.102;8.856;2023-06-14T03:52:18;15.50;72.10
6333;DHT22;3199;49.102;8.856;2023-06-14T03:54:43;15.40;72.60
6333;DHT22;3199;49.102;8.856;2023-06-14T03:57:09;15.50;72.10
6333;DHT22;3199;49.102;8.856;2023-06-14T03:59:35;15.50;72.10
6333;DHT22;3199;49.102;8.856;2023-06-14T04:02:02;15.50;72.10
6333;DHT22;3199;49.102;8.856;2023-06-14T04:04:28;15.50;72.10
6333;DHT22;3199;49.102;8.856;2023-06-14T04:06:57;15.60;72.40
6333;DHT22;3199;49.102;8.856;2023-06-14T04:09:24;15.60;72.20
6333;DHT22;3199;49.102;8.856;2023-06-14T04:11:51;15.60;72.40
6333;DHT22;3199;49.102;8.856;2023-06-14T04:14:21;15.60;72.40
6333;DHT22;3199;49.102;8.856;2023-06-14T04:16:48;15.70;72.60
6333;DHT22;3199;49.102;8.856;2023-06-14T04:19:14;15.80;72.40
6333;DHT22;3199;49.102;8.856;2023-06-14T04:21:39;16.10;72.00
6333;DHT22;3199;49.102;8.856;2023-06-14T04:24:05;16.30;71.10
6333;DHT22;3199;49.102;8.856;2023-06-14T04:26:32;16.50;70.30
6333;DHT22;3199;49.102;8.856;2023-06-14T04:28:59;16.70;69.70
6333;DHT22;3199;49.102;8.856;2023-06-14T04:31:31;16.90;69.20
6333;DHT22;3199;49.102;8.856;2023-06-14T04:33:59;17.00;68.50
6333;DHT22;3199;49.102;8.856;2023-06-14T04:36:25;17.20;68.20
6333;DHT22;3199;49.102;8.856;2023-06-14T04:38:53;17.30;67.70
6333;DHT22;3199;49.102;8.856;2023-06-14T04:41:20;17.50;67.50
6333;DHT22;3199;49.102;8.856;2023-06-14T04:43:50;17.60;67.10
6333;DHT22;3199;49.102;8.856;2023-06-14T04:46:18;17.80;66.80
6333;DHT22;3199;49.102;8.856;2023-06-14T04:48:44;18.00;66.60
6333;DHT22;3199;49.102;8.856;2023-06-14T04:51:11;18.20;66.30
6333;DHT22;3199;49.102;8.856;2023-06-14T04:53:38;18.50;65.70
6333;DHT22;3199;49.102;8.856;2023-06-14T04:56:04;18.70;65.20
6333;DHT22;3199;49.102;8.856;2023-06-14T04:58:29;19.00;64.30
6333;DHT22;3199;49.102;8.856;2023-06-14T05:00:56;19.20;63.90
6333;DHT22;3199;49.102;8.856;2023-06-14T05:03:25;19.40;64.10
6333;DHT22;3199;49.102;8.856;2023-06-14T05:05:50;19.50;62.80
6333;DHT22;3199;49.102;8.856;2023-06-14T05:08:18;19.70;62.70
6333;DHT22;3199;49.102;8.856;2023-06-14T05:10:44;19.90;62.10
6333;DHT22;3199;49.102;8.856;2023-06-14T05:13:09;20.20;61.60
6333;DHT22;3199;49.102;8.856;2023-06-14T05:15:35;20.50;61.40
6333;DHT22;3199;49.102;8.856;2023-06-14T05:18:01;20.80;60.40
6333;DHT22;3199;49.102;8.856;2023-06-14T05:20:28;21.00;59.80
6333;DHT22;3199;49.102;8.856;2023-06-14T05:22:54;21.20;59.70
6333;DHT22;3199;49.102;8.856;2023-06-14T05:25:20;21.40;60.00
6333;DHT22;3199;49.102;8.856;2023-06-14T05:27:46;21.90;59.50
6333;DHT22;3199;49.102;8.856;2023-06-14T05:30:12;22.30;58.50
6333;DHT22;3199;49.102;8.856;2023-06-14T05:32:38;22.80;57.80
6333;DHT22;3199;49.102;8.856;2023-06-14T05:35:04;23.30;57.00
6333;DHT22;3199;49.102;8.856;2023-06-14T05:37:31;23.80;55.90
6333;DHT22;3199;49.102;8.856;2023-06-14T05:39:56;23.90;55.10
6333;DHT22;3199;49.102;8.856;2023-06-14T05:42:22;24.10;54.80
6333;DHT22;3199;49.102;8.856;2023-06-14T05:44:47;24.10;54.50
6333;DHT22;3199;49.102;8.856;2023-06-14T05:47:13;24.30;54.80
6333;DHT22;3199;49.102;8.856;2023-06-14T05:49:39;24.50;54.50
6333;DHT22;3199;49.102;8.856;2023-06-14T05:52:05;24.80;54.30
6333;DHT22;3199;49.102;8.856;2023-06-14T05:54:31;25.20;53.70
6333;DHT22;3199;49.102;8.856;2023-06-14T05:56:56;25.50;52.80
6333;DHT22;3199;49.102;8.856;2023-06-14T05:59:29;25.70;52.40
6333;DHT22;3199;49.102;8.856;2023-06-14T06:01:55;25.90;52.20
6333;DHT22;3199;49.102;8.856;2023-06-14T06:04:20;26.20;51.70
6333;DHT22;3199;49.102;8.856;2023-06-14T06:06:46;26.40;51.20
6333;DHT22;3199;49.102;8.856;2023-06-14T06:09:13;26.70;51.10
6333;DHT22;3199;49.102;8.856;2023-06-14T06:11:40;27.00;50.70
6333;DHT22;3199;49.102;8.856;2023-06-14T06:14:05;27.30;49.70
6333;DHT22;3199;49.102;8.856;2023-06-14T06:16:31;27.00;48.90
6333;DHT22;3199;49.102;8.856;2023-06-14T06:18:57;26.70;48.90
6333;DHT22;3199;49.102;8.856;2023-06-14T06:21:22;26.60;49.50
6333;DHT22;3199;49.102;8.856;2023-06-14T06:23:48;26.80;49.90
6333;DHT22;3199;49.102;8.856;2023-06-14T06:26:13;27.30;49.20
6333;DHT22;3199;49.102;8.856;2023-06-14T06:28:39;27.60;48.80
6333;DHT22;3199;49.102;8.856;2023-06-14T06:31:04;27.60;48.20
6333;DHT22;3199;49.102;8.856;2023-06-14T06:33:30;27.60;47.80
6333;DHT22;3199;49.102;8.856;2023-06-14T06:35:56;27.40;47.70
6333;DHT22;3199;49.102;8.856;2023-06-14T06:38:21;27.10;47.60
6333;DHT22;3199;49.102;8.856;2023-06-14T06:40:47;27.40;48.10
6333;DHT22;3199;49.102;8.856;2023-06-14T06:43:12;27.60;47.70
6333;DHT22;3199;49.102;8.856;2023-06-14T06:45:42;27.60;47.50
6333;DHT22;3199;49.102;8.856;2023-06-14T06:48:08;27.90;47.30
6333;DHT22;3199;49.102;8.856;2023-06-14T06:50:35;27.80;47.30
6333;DHT22;3199;49.102;8.856;2023-06-14T06:53:01;27.80;46.90
6333;DHT22;3199;49.102;8.856;2023-06-14T06:55:27;27.40;46.80
6333;DHT22;3199;49.102;8.856;2023-06-14T06:57:52;27.10;47.90
6333;DHT22;3199;49.102;8.856;2023-06-14T07:00:19;27.20;48.00
6333;DHT22;3199;49.102;8.856;2023-06-14T07:02:45;27.40;48.10
6333;DHT22;3199;49.102;8.856;2023-06-14T07:05:11;27.70;48.10
6333;DHT22;3199;49.102;8.856;2023-06-14T07:07:37;28.20;47.50
6333;DHT22;3199;49.102;8.856;2023-06-14T07:10:04;28.50;46.90
6333;DHT22;3199;49.102;8.856;2023-06-14T07:12:31;28.30;46.40
6333;DHT22;3199;49.102;8.856;2023-06-14T07:14:59;28.40;46.60
6333;DHT22;3199;49.102;8.856;2023-06-14T07:17:24;28.30;46.10
6333;DHT22;3199;49.102;8.856;2023-06-14T07:19:50;28.40;46.70
6333;DHT22;3199;49.102;8.856;2023-06-14T07:22:16;28.40;45.90
6333;DHT22;3199;49.102;8.856;2023-06-14T07:24:42;28.50;45.80
6333;DHT22;3199;49.102;8.856;2023-06-14T07:27:08;28.60;45.80
6333;DHT22;3199;49.102;8.856;2023-06-14T07:29:34;28.50;45.80
6333;DHT22;3199;49.102;8.856;2023-06-14T07:31:59;28.30;46.60
6333;DHT22;3199;49.102;8.856;2023-06-14T07:34:25;28.40;46.20
6333;DHT22;3199;49.102;8.856;2023-06-14T07:36:52;28.20;45.60
6333;DHT22;3199;49.102;8.856;2023-06-14T07:39:19;28.20;46.30
6333;DHT22;3199;49.102;8.856;2023-06-14T07:41:45;28.20;46.50
6333;DHT22;3199;49.102;8.856;2023-06-14T07:44:10;28.10;46.60
6333;DHT22;3199;49.102;8.856;2023-06-14T07:46:37;28.00;47.10
6333;DHT22;3199;49.102;8.856;2023-06-14T07:49:03;28.00;46.90
6333;DHT22;3199;49.102;8.856;2023-06-14T07:51:29;28.10;47.20
6333;DHT22;3199;49.102;8.856;2023-06-14T07:53:54;28.50;47.50
6333;DHT22;3199;49.102;8.856;2023-06-14T07:56:20;28.80;46.40
6333;DHT22;3199;49.102;8.856;2023-06-14T07:58:46;28.80;46.00
6333;DHT22;3199;49.102;8.856;2023-06-14T08:01:12;28.90;46.10
6333;DHT22;3199;49.102;8.856;2023-06-14T08:03:37;28.90;45.70
6333;DHT22;3199;49.102;8.856;2023-06-14T08:06:03;28.80;46.10
6333;DHT22;3199;49.102;8.856;2023-06-14T08:08:29;28.60;45.90
6333;DHT22;3199;49.102;8.856;2023-06-14T08:10:55;28.30;46.40
6333;DHT22;3199;49.102;8.856;2023-06-14T08:13:21;28.00;46.30
6333;DHT22;3199;49.102;8.856;2023-06-14T08:15:47;28.10;46.80
6333;DHT22;3199;49.102;8.856;2023-06-14T08:18:12;28.30;46.30
6333;DHT22;3199;49.102;8.856;2023-06-14T08:20:38;28.50;46.40
6333;DHT22;3199;49.102;8.856;2023-06-14T08:23:03;28.50;46.30
6333;DHT22;3199;49.102;8.856;2023-06-14T08:25:30;28.60;46.50
6333;DHT22;3199;49.102;8.856;2023-06-14T08:27:56;28.70;46.20
6333;DHT22;3199;49.102;8.856;2023-06-14T08:30:21;29.00;45.80
6333;DHT22;3199;49.102;8.856;2023-06-14T08:32:47;29.00;45.10
6333;DHT22;3199;49.102;8.856;2023-06-14T08:35:13;29.00;45.20
6333;DHT22;3199;49.102;8.856;2023-06-14T08:37:40;28.90;44.60
6333;DHT22;3199;49.102;8.856;2023-06-14T08:40:18;28.90;45.60
6333;DHT22;3199;49.102;8.856;2023-06-14T08:42:45;29.00;44.70
6333;DHT22;3199;49.102;8.856;2023-06-14T08:45:12;28.80;44.80
6333;DHT22;3199;49.102;8.856;2023-06-14T08:47:37;28.70;45.50
6333;DHT22;3199;49.102;8.856;2023-06-14T08:50:03;28.70;45.30
6333;DHT22;3199;49.102;8.856;2023-06-14T08:52:33;28.60;45.70
6333;DHT22;3199;49.102;8.856;2023-06-14T08:55:00;28.60;45.40
6333;DHT22;3199;49.102;8.856;2023-06-14T08:57:27;28.80;45.90
6333;DHT22;3199;49.102;8.856;2023-06-14T08:59:56;29.10;45.60
6333;DHT22;3199;49.102;8.856;2023-06-14T09:02:22;29.20;44.30
6333;DHT22;3199;49.102;8.856;2023-06-14T09:04:48;29.00;44.20
6333;DHT22;3199;49.102;8.856;2023-06-14T09:07:15;28.90;43.90
6333;DHT22;3199;49.102;8.856;2023-06-14T09:09:41;28.90;44.10
6333;DHT22;3199;49.102;8.856;2023-06-14T09:12:11;28.90;44.30
6333;DHT22;3199;49.102;8.856;2023-06-14T09:14:38;28.90;44.10
6333;DHT22;3199;49.102;8.856;2023-06-14T09:17:05;28.90;44.00
6333;DHT22;3199;49.102;8.856;2023-06-14T09:19:31;28.90;44.80
6333;DHT22;3199;49.102;8.856;2023-06-14T09:21:57;29.00;44.10
6333;DHT22;3199;49.102;8.856;2023-06-14T09:24:24;29.20;44.40
6333;DHT22;3199;49.102;8.856;2023-06-14T09:26:51;29.70;44.10
6333;DHT22;3199;49.102;8.856;2023-06-14T09:29:17;29.90;44.20
6333;DHT22;3199;49.102;8.856;2023-06-14T09:31:45;30.00;42.50
6333;DHT22;3199;49.102;8.856;2023-06-14T09:34:11;30.00;42.50
6333;DHT22;3199;49.102;8.856;2023-06-14T09:36:39;30.00;42.80
6333;DHT22;3199;49.102;8.856;2023-06-14T09:39:06;30.00;42.90
6333;DHT22;3199;49.102;8.856;2023-06-14T09:41:33;29.80;42.50
6333;DHT22;3199;49.102;8.856;2023-06-14T09:44:00;29.40;42.70
6333;DHT22;3199;49.102;8.856;2023-06-14T09:46:28;29.10;43.40
6333;DHT22;3199;49.102;8.856;2023-06-14T09:48:55;29.10;43.20
6333;DHT22;3199;49.102;8.856;2023-06-14T09:51:25;29.10;43.10
6333;DHT22;3199;49.102;8.856;2023-06-14T09:53:52;29.30;43.40
6333;DHT22;3199;49.102;8.856;2023-06-14T09:56:26;29.50;42.20
6333;DHT22;3199;49.102;8.856;2023-06-14T09:58:59;29.60;42.70
6333;DHT22;3199;49.102;8.856;2023-06-14T10:01:26;29.50;42.70
6333;DHT22;3199;49.102;8.856;2023-06-14T10:04:07;29.50;42.30
6333;DHT22;3199;49.102;8.856;2023-06-14T10:06:37;29.60;42.10
6333;DHT22;3199;49.102;8.856;2023-06-14T10:09:08;29.70;42.80
6333;DHT22;3199;49.102;8.856;2023-06-14T10:11:36;30.00;43.00
6333;DHT22;3199;49.102;8.856;2023-06-14T10:14:04;30.30;42.60
6333;DHT22;3199;49.102;8.856;2023-06-14T10:19:25;30.90;40.60
6333;DHT22;3199;49.102;8.856;2023-06-14T10:24:33;31.30;39.40
6333;DHT22;3199;49.102;8.856;2023-06-14T10:26:59;31.40;39.90
6333;DHT22;3199;49.102;8.856;2023-06-14T10:29:29;31.60;40.10
6333;DHT22;3199;49.102;8.856;2023-06-14T10:31:59;31.80;40.50
6333;DHT22;3199;49.102;8.856;2023-06-14T10:34:29;31.80;40.20
6333;DHT22;3199;49.102;8.856;2023-06-14T10:39:27;31.80;39.80
6333;DHT22;3199;49.102;8.856;2023-06-14T10:41:54;31.60;39.20
6333;DHT22;3199;49.102;8.856;2023-06-14T10:46:55;31.00;39.70
6333;DHT22;3199;49.102;8.856;2023-06-14T10:49:42;31.20;38.90
6333;DHT22;3199;49.102;8.856;2023-06-14T10:52:12;31.30;39.20
6333;DHT22;3199;49.102;8.856;2023-06-14T10:55:01;31.20;38.70
6333;DHT22;3199;49.102;8.856;2023-06-14T10:57:29;31.40;38.90
6333;DHT22;3199;49.102;8.856;2023-06-14T10:59:57;31.50;38.90
6333;DHT22;3199;49.102;8.856;2023-06-14T11:05:27;30.70;39.60
6333;DHT22;3199;49.102;8.856;2023-06-14T11:08:17;30.10;39.50
6333;DHT22;3199;49.102;8.856;2023-06-14T11:10:49;29.60;40.30
6333;DHT22;3199;49.102;8.856;2023-06-14T11:13:16;29.40;40.90
6333;DHT22;3199;49.102;8.856;2023-06-14T11:15:47;29.40;41.00
6333;DHT22;3199;49.102;8.856;2023-06-14T11:18:13;29.60;41.40
6333;DHT22;3199;49.102;8.856;2023-06-14T11:20:39;29.70;41.30
6333;DHT22;3199;49.102;8.856;2023-06-14T11:23:05;29.80;41.00
6333;DHT22;3199;49.102;8.856;2023-06-14T11:25:31;30.00;41.70
6333;DHT22;3199;49.102;8.856;2023-06-14T11:27:57;30.50;41.10
6333;DHT22;3199;49.102;8.856;2023-06-14T11:30:23;31.00;40.00
6333;DHT22;3199;49.102;8.856;2023-06-14T11:32:51;31.00;39.80
6333;DHT22;3199;49.102;8.856;2023-06-14T11:35:18;30.80;39.20
6333;DHT22;3199;49.102;8.856;2023-06-14T11:37:44;30.40;39.80
6333;DHT22;3199;49.102;8.856;2023-06-14T11:40:11;30.50;39.60
6333;DHT22;3199;49.102;8.856;2023-06-14T11:42:39;30.40;39.10
6333;DHT22;3199;49.102;8.856;2023-06-14T11:45:08;30.20;39.50
6333;DHT22;3199;49.102;8.856;2023-06-14T11:47:34;30.20;39.60
6333;DHT22;3199;49.102;8.856;2023-06-14T11:50:08;30.30;38.90
6333;DHT22;3199;49.102;8.856;2023-06-14T11:52:35;30.50;39.70
6333;DHT22;3199;49.102;8.856;2023-06-14T11:55:02;30.60;39.10
6333;DHT22;3199;49.102;8.856;2023-06-14T11:57:30;30.40;39.50
6333;DHT22;3199;49.102;8.856;2023-06-14T11:59:58;30.40;39.50
6333;DHT22;3199;49.102;8.856;2023-06-14T12:02:24;30.60;39.00
6333;DHT22;3199;49.102;8.856;2023-06-14T12:04:50;30.80;38.50
6333;DHT22;3199;49.102;8.856;2023-06-14T12:07:17;30.70;38.10
6333;DHT22;3199;49.102;8.856;2023-06-14T12:12:25;30.20;39.40
6333;DHT22;3199;49.102;8.856;2023-06-14T12:14:51;30.10;40.10
6333;DHT22;3199;49.102;8.856;2023-06-14T12:17:18;29.90;39.60
6333;DHT22;3199;49.102;8.856;2023-06-14T12:19:45;29.80;39.90
6333;DHT22;3199;49.102;8.856;2023-06-14T12:22:11;29.50;40.00
6333;DHT22;3199;49.102;8.856;2023-06-14T12:24:37;29.30;40.20
6333;DHT22;3199;49.102;8.856;2023-06-14T12:27:06;29.10;40.50
6333;DHT22;3199;49.102;8.856;2023-06-14T12:29:32;29.30;40.20
6333;DHT22;3199;49.102;8.856;2023-06-14T12:31:58;29.40;39.60
6333;DHT22;3199;49.102;8.856;2023-06-14T12:34:27;29.50;39.00
6333;DHT22;3199;49.102;8.856;2023-06-14T12:36:53;29.60;39.20
6333;DHT22;3199;49.102;8.856;2023-06-14T12:39:19;29.50;39.10
6333;DHT22;3199;49.102;8.856;2023-06-14T12:41:46;29.30;39.50
6333;DHT22;3199;49.102;8.856;2023-06-14T12:44:12;29.10;39.40
6333;DHT22;3199;49.102;8.856;2023-06-14T12:46:39;28.80;39.20
6333;DHT22;3199;49.102;8.856;2023-06-14T12:49:07;28.30;39.50
6333;DHT22;3199;49.102;8.856;2023-06-14T12:51:33;28.00;40.60
6333;DHT22;3199;49.102;8.856;2023-06-14T12:53:58;27.90;41.20
6333;DHT22;3199;49.102;8.856;2023-06-14T12:56:24;28.00;41.20
6333;DHT22;3199;49.102;8.856;2023-06-14T12:58:50;28.20;41.10
6333;DHT22;3199;49.102;8.856;2023-06-14T13:01:15;28.30;40.40
6333;DHT22;3199;49.102;8.856;2023-06-14T13:03:41;28.40;41.00
6333;DHT22;3199;49.102;8.856;2023-06-14T13:06:06;28.70;40.30
6333;DHT22;3199;49.102;8.856;2023-06-14T13:08:32;29.00;40.30
6333;DHT22;3199;49.102;8.856;2023-06-14T13:10:57;29.20;40.00
6333;DHT22;3199;49.102;8.856;2023-06-14T13:13:23;29.30;40.20
6333;DHT22;3199;49.102;8.856;2023-06-14T13:15:49;29.50;39.90
6333;DHT22;3199;49.102;8.856;2023-06-14T13:18:15;29.60;39.60
6333;DHT22;3199;49.102;8.856;2023-06-14T13:20:41;29.80;39.60
6333;DHT22;3199;49.102;8.856;2023-06-14T13:23:07;29.90;39.40
6333;DHT22;3199;49.102;8.856;2023-06-14T13:25:39;30.00;39.20
6333;DHT22;3199;49.102;8.856;2023-06-14T13:28:05;30.00;38.20
6333;DHT22;3199;49.102;8.856;2023-06-14T13:30:32;29.70;37.90
6333;DHT22;3199;49.102;8.856;2023-06-14T13:32:58;29.80;38.50
6333;DHT22;3199;49.102;8.856;2023-06-14T13:35:24;30.00;38.50
6333;DHT22;3199;49.102;8.856;2023-06-14T13:37:50;30.10;39.20
6333;DHT22;3199;49.102;8.856;2023-06-14T13:40:16;30.00;39.10
6333;DHT22;3199;49.102;8.856;2023-06-14T13:42:41;29.40;39.10
6333;DHT22;3199;49.102;8.856;2023-06-14T13:45:08;29.00;40.00
6333;DHT22;3199;49.102;8.856;2023-06-14T13:47:34;28.60;40.10
6333;DHT22;3199;49.102;8.856;2023-06-14T13:49:59;28.20;40.50
6333;DHT22;3199;49.102;8.856;2023-06-14T13:52:25;27.90;40.60
6333;DHT22;3199;49.102;8.856;2023-06-14T13:54:51;27.60;41.30
6333;DHT22;3199;49.102;8.856;2023-06-14T13:57:17;27.50;42.10
6333;DHT22;3199;49.102;8.856;2023-06-14T13:59:43;27.60;42.80
6333;DHT22;3199;49.102;8.856;2023-06-14T14:02:10;27.80;42.90
6333;DHT22;3199;49.102;8.856;2023-06-14T14:04:35;28.10;42.50
6333;DHT22;3199;49.102;8.856;2023-06-14T14:07:02;28.40;42.30
6333;DHT22;3199;49.102;8.856;2023-06-14T14:09:27;28.60;40.90
6333;DHT22;3199;49.102;8.856;2023-06-14T14:11:53;28.40;41.30
6333;DHT22;3199;49.102;8.856;2023-06-14T14:14:18;28.00;41.40
6333;DHT22;3199;49.102;8.856;2023-06-14T14:16:44;27.70;41.10
6333;DHT22;3199;49.102;8.856;2023-06-14T14:19:09;27.40;41.60
6333;DHT22;3199;49.102;8.856;2023-06-14T14:21:35;27.20;42.00
6333;DHT22;3199;49.102;8.856;2023-06-14T14:24:01;26.90;42.30
6333;DHT22;3199;49.102;8.856;2023-06-14T14:26:27;26.70;43.40
6333;DHT22;3199;49.102;8.856;2023-06-14T14:28:53;26.60;43.60
6333;DHT22;3199;49.102;8.856;2023-06-14T14:31:18;26.70;43.90
6333;DHT22;3199;49.102;8.856;2023-06-14T14:33:44;26.70;43.70
6333;DHT22;3199;49.102;8.856;2023-06-14T14:36:09;26.80;44.40
6333;DHT22;3199;49.102;8.856;2023-06-14T14:38:35;26.80;43.20
6333;DHT22;3199;49.102;8.856;2023-06-14T14:41:00;27.00;43.20
6333;DHT22;3199;49.102;8.856;2023-06-14T14:43:26;27.20;43.50
6333;DHT22;3199;49.102;8.856;2023-06-14T14:45:52;27.30;43.30
6333;DHT22;3199;49.102;8.856;2023-06-14T14:48:17;27.30;42.60
6333;DHT22;3199;49.102;8.856;2023-06-14T14:50:43;27.10;42.60
6333;DHT22;3199;49.102;8.856;2023-06-14T14:53:09;27.00;42.70
6333;DHT22;3199;49.102;8.856;2023-06-14T14:55:34;26.90;42.70
6333;DHT22;3199;49.102;8.856;2023-06-14T14:58:02;26.90;42.50
6333;DHT22;3199;49.102;8.856;2023-06-14T15:00:28;27.00;41.60
6333;DHT22;3199;49.102;8.856;2023-06-14T15:02:53;27.20;41.80
6333;DHT22;3199;49.102;8.856;2023-06-14T15:05:19;27.40;41.80
6333;DHT22;3199;49.102;8.856;2023-06-14T15:07:45;27.60;41.70
6333;DHT22;3199;49.102;8.856;2023-06-14T15:10:11;27.60;41.40
6333;DHT22;3199;49.102;8.856;2023-06-14T15:12:37;27.50;41.40
6333;DHT22;3199;49.102;8.856;2023-06-14T15:15:03;27.50;41.60
6333;DHT22;3199;49.102;8.856;2023-06-14T15:17:29;27.60;41.90
6333;DHT22;3199;49.102;8.856;2023-06-14T15:19:54;27.80;42.50
6333;DHT22;3199;49.102;8.856;2023-06-14T15:22:20;27.80;42.90
6333;DHT22;3199;49.102;8.856;2023-06-14T15:24:45;27.80;42.90
6333;DHT22;3199;49.102;8.856;2023-06-14T15:27:12;27.80;42.90
6333;DHT22;3199;49.102;8.856;2023-06-14T15:29:39;27.70;42.20
6333;DHT22;3199;49.102;8.856;2023-06-14T15:32:05;27.70;42.50
6333;DHT22;3199;49.102;8.856;2023-06-14T15:34:32;27.50;42.70
6333;DHT22;3199;49.102;8.856;2023-06-14T15:36:57;27.30;42.60
6333;DHT22;3199;49.102;8.856;2023-06-14T15:39:23;27.00;42.80
6333;DHT22;3199;49.102;8.856;2023-06-14T15:41:49;27.00;43.10
6333;DHT22;3199;49.102;8.856;2023-06-14T15:44:17;26.90;42.70
6333;DHT22;3199;49.102;8.856;2023-06-14T15:46:42;26.90;42.90
6333;DHT22;3199;49.102;8.856;2023-06-14T15:49:12;26.80;42.30
6333;DHT22;3199;49.102;8.856;2023-06-14T15:51:39;26.60;42.20
6333;DHT22;3199;49.102;8.856;2023-06-14T15:54:04;26.50;42.60
6333;DHT22;3199;49.102;8.856;2023-06-14T15:56:30;26.40;43.50
6333;DHT22;3199;49.102;8.856;2023-06-14T15:58:56;26.40;45.10
6333;DHT22;3199;49.102;8.856;2023-06-14T16:01:22;26.30;45.70
6333;DHT22;3199;49.102;8.856;2023-06-14T16:03:48;26.10;45.80
6333;DHT22;3199;49.102;8.856;2023-06-14T16:06:14;26.00;46.10
6333;DHT22;3199;49.102;8.856;2023-06-14T16:08:39;26.00;46.50
6333;DHT22;3199;49.102;8.856;2023-06-14T16:11:05;25.90;46.30
6333;DHT22;3199;49.102;8.856;2023-06-14T16:13:31;25.90;46.30
6333;DHT22;3199;49.102;8.856;2023-06-14T16:15:57;25.80;46.10
6333;DHT22;3199;49.102;8.856;2023-06-14T16:18:23;25.80;45.90
6333;DHT22;3199;49.102;8.856;2023-06-14T16:20:48;25.70;46.10